Karin S — V2BM6 — position and weather

sailwx.info

Track history (hours):
 
Tides and Currents Weather Stations Pressure Air Temp Water Temp Dewpoint Dewpoint Depression Visibility Wind Speed Wind Dir Waves Ship Positions

Karin S

Last reported at 2016-Dec-08 16:14 UTC. Time now 2016-Dec-09 00:09 UTC.
Position N 39°26' W 000°20'.

Length 141 m; draft 7 m.

Type: Cargo ship. MMSI: 304871000.

Date/timePositionNaut miles runAvg speedWind from/ knotsBaromVisibWave heightAir tempDewpointWater temp
2016-Dec-08 16:14N 39°26' W 000°20'3 3.7
2016-Dec-08 15:30N 39°25' W 000°16'6811.5
2016-Dec-08 09:33N 39°56' E 001°03'1615.8
2016-Dec-08 08:33N 40°09' E 001°14'1615.8
2016-Dec-08 07:33N 40°23' E 001°25'1413.8
2016-Dec-08 06:33N 40°35' E 001°35'1212.7
2016-Dec-08 05:34N 40°45' E 001°44'1312.7
2016-Dec-08 04:33N 40°56' E 001°53'1312.6
2016-Dec-08 03:30N 41°07' E 002°02'14 0.6
2016-Dec-07 06:12N 41°19' E 002°10'14 6.6
2016-Dec-07 04:09N 41°06' E 002°06'6 9.6
2016-Dec-07 03:33N 41°01' E 002°03'1010.2
2016-Dec-07 02:33N 40°51' E 001°58'1310.2
2016-Dec-07 01:16N 40°39' E 001°51'710.3
2016-Dec-07 00:33N 40°32' E 001°48'1010.3
2016-Dec-06 23:33N 40°22' E 001°43'1110.4
2016-Dec-06 22:33N 40°13' E 001°38'1010.3
2016-Dec-06 21:33N 40°03' E 001°33'1110.4
2016-Dec-06 20:33N 39°53' E 001°28'3310.2
2016-Dec-06 17:20N 39°23' E 001°13'  
Track history (hours):
 
Tides and Currents Weather Stations Pressure Air Temp Water Temp Dewpoint Dewpoint Depression Visibility Wind Speed Wind Dir Waves Ship Positions

Karin S

Last reported at 2016-Dec-08 16:14 UTC. Time now 2016-Dec-09 00:09 UTC.
Position N 39°26' W 000°20'.

Length 141 m; draft 7 m.

Type: Cargo ship. MMSI: 304871000.

Date/timePositionNaut miles runAvg speedWind from/ knotsBaromVisibWave heightAir tempDewpointWater temp
2016-Dec-08 16:14N 39°26' W 000°20'3 3.7
2016-Dec-08 15:30N 39°25' W 000°16'6811.5
2016-Dec-08 09:33N 39°56' E 001°03'1615.8
2016-Dec-08 08:33N 40°09' E 001°14'1615.8
2016-Dec-08 07:33N 40°23' E 001°25'1413.8
2016-Dec-08 06:33N 40°35' E 001°35'1212.7
2016-Dec-08 05:34N 40°45' E 001°44'1312.7
2016-Dec-08 04:33N 40°56' E 001°53'1312.6
2016-Dec-08 03:30N 41°07' E 002°02'14 0.6
2016-Dec-07 06:12N 41°19' E 002°10'14 6.6
2016-Dec-07 04:09N 41°06' E 002°06'6 9.6
2016-Dec-07 03:33N 41°01' E 002°03'1010.2
2016-Dec-07 02:33N 40°51' E 001°58'1310.2
2016-Dec-07 01:16N 40°39' E 001°51'710.3
2016-Dec-07 00:33N 40°32' E 001°48'1010.3
2016-Dec-06 23:33N 40°22' E 001°43'1110.4
2016-Dec-06 22:33N 40°13' E 001°38'1010.3
2016-Dec-06 21:33N 40°03' E 001°33'1110.4
2016-Dec-06 20:33N 39°53' E 001°28'3310.2
2016-Dec-06 17:20N 39°23' E 001°13'  

Dump ship's entire track history